Data for 06/14/2016

Time Sea-Level Adjusted Pressure Absolute Pressure Temperature Relative Humidity Dew Point   
(mb) (inHg) (mb) (inHg) (C) (F) (%) (C) (F)
00:05 1012 29.88 841 24.83 14.8 58.6 47 3.8 38.8
00:10 1012 29.88 841 24.83 14.9 58.7 47 3.7 38.7
00:15 1012 29.88 841 24.83 14.7 58.5 47 3.7 38.7
00:20 1012 29.88 841 24.83 14.7 58.4 47 3.6 38.4
00:25 1012 29.88 841 24.83 14.8 58.6 47 3.6 38.5
00:30 1012 29.88 841 24.83 14.7 58.4 48 4 39.1
00:35 1012 29.88 841 24.83 14.7 58.4 46 3.3 37.9
00:40 1012 29.88 841 24.83 15 59 44 3 37.3
00:45 1012 29.88 841 24.83 14.8 58.7 46 3.5 38.2
00:50 1012 29.88 841 24.83 14.7 58.4 47 3.4 38.2
00:55 1012 29.88 841 24.83 14.4 58 48 3.8 38.8
01:00 1012 29.88 841 24.83 14.1 57.5 50 3.8 38.9
01:05 1012 29.88 841 24.83 14.1 57.3 48 3.4 38.1
01:10 1012 29.88 841 24.83 14.2 57.5 49 3.7 38.7
01:15 1011 29.85 841 24.83 14.2 57.5 49 3.7 38.7
01:20 1011 29.85 841 24.83 13.9 57 51 4 39.2
01:25 1011 29.85 841 24.83 13.6 56.5 51 3.7 38.7
01:30 1011 29.85 841 24.83 13.5 56.4 52 4 39.1
01:35 1011 29.85 841 24.83 13.3 55.9 53 4 39.2
01:40 1011 29.85 840 24.81 13.2 55.8 52 3.8 38.8
01:45 1011 29.85 840 24.81 13.1 55.7 53 4 39.2
01:50 1011 29.85 840 24.81 13 55.5 53 3.8 38.8
01:55 1011 29.85 840 24.81 12.9 55.2 53 3.7 38.7
02:00 1011 29.85 840 24.81 13 55.3 53 3.7 38.7
02:05 1011 29.85 840 24.81 12.8 55.1 54 3.7 38.6
02:10 1011 29.85 840 24.81 12.8 55 53 3.6 38.4
02:15 1011 29.85 840 24.81 12.8 55.1 53 3.6 38.5
02:20 1011 29.85 840 24.81 12.7 54.8 53 3.5 38.4
02:25 1011 29.85 840 24.81 12.6 54.8 53 3.4 38.1
02:30 1011 29.85 840 24.81 12.7 54.9 53 3.3 38
02:35 1011 29.85 840 24.81 12.7 54.8 54 3.6 38.5
02:40 1011 29.85 840 24.81 12.6 54.6 53 3.3 38
02:45 1011 29.85 840 24.81 12.7 54.9 51 3 37.3
02:50 1011 29.85 840 24.81 12.9 55.2 51 3.1 37.6
02:55 1011 29.85 840 24.81 12.7 54.9 51 3.1 37.5
03:00 1011 29.85 840 24.81 12.7 54.8 51 2.9 37.2
03:05 1011 29.85 840 24.81 12.7 54.9 51 2.8 37.1
03:10 1011 29.85 840 24.81 12.7 54.9 50 2.7 36.9
03:15 1011 29.85 840 24.81 12.7 54.9 51 2.9 37.1
03:20 1011 29.85 840 24.81 12.6 54.7 51 2.8 37
03:25 1011 29.85 840 24.81 12.7 54.9 51 2.8 37
03:30 1011 29.85 840 24.81 12.7 54.8 51 2.8 37.1
03:35 1011 29.85 840 24.81 12.5 54.4 53 3.1 37.6
03:40 1011 29.85 840 24.81 12.2 53.9 53 2.9 37.2
03:45 1011 29.85 840 24.81 12.1 53.8 53 2.9 37.3
03:50 1011 29.85 840 24.81 12 53.6 54 2.9 37.3
03:55 1011 29.85 840 24.81 11.9 53.4 54 2.9 37.1
04:00 1011 29.85 840 24.81 11.8 53.3 54 2.9 37.3
04:05 1011 29.85 840 24.81 11.7 53 54 2.8 37.1
04:10 1011 29.85 840 24.81 11.6 52.8 54 2.7 36.9
04:15 1011 29.85 840 24.81 11.6 52.8 54 2.6 36.7
04:20 1011 29.85 840 24.81 11.6 52.8 54 2.6 36.7
04:25 1011 29.85 840 24.81 11.6 52.8 54 2.5 36.6
04:30 1011 29.85 840 24.81 11.5 52.8 53 2.5 36.4
04:35 1011 29.85 840 24.81 11.6 52.9 53 2.4 36.4
04:40 1011 29.85 840 24.81 11.6 52.9 53 2.3 36.2
04:45 1011 29.85 840 24.81 11.7 53 52 2.1 35.8
04:50 1011 29.85 840 24.81 11.8 53.3 52 2.4 36.3
04:55 1011 29.85 840 24.81 11.7 53.1 52 2.2 35.9
05:00 1011 29.85 840 24.81 11.7 53 52 2.3 36.1
05:05 1011 29.85 840 24.81 11.8 53.2 52 2.2 36
05:10 1011 29.85 840 24.81 11.8 53.2 52 2.4 36.3
05:15 1011 29.85 840 24.81 11.7 53.1 53 2.4 36.3
05:20 1011 29.85 840 24.81 11.9 53.4 51 2.3 36.1
05:25 1011 29.85 840 24.81 12.1 53.7 50 2.2 35.9
05:30 1011 29.85 840 24.81 12.2 54 51 2.3 36.2
05:35 1011 29.85 840 24.81 12.3 54.2 50 2.2 36
05:40 1011 29.85 840 24.81 12.6 54.7 49 2.2 36
05:45 1011 29.85 840 24.81 12.9 55.3 47 2 35.6
05:50 1011 29.85 840 24.81 13.1 55.6 48 2.5 36.6
05:55 1011 29.85 840 24.81 13.2 55.7 49 2.7 36.8
06:00 1011 29.85 840 24.81 13.3 55.9 49 2.8 37
06:05 1011 29.85 840 24.81 13.5 56.3 49 3.1 37.5
06:10 1011 29.85 840 24.81 13.8 56.9 47 2.7 36.9
06:15 1011 29.85 840 24.81 14 57.1 49 3.4 38.2
06:20 1011 29.85 840 24.81 13.7 56.7 50 3.5 38.3
06:25 1011 29.85 840 24.81 13.6 56.5 51 3.6 38.5
06:30 1011 29.85 840 24.81 13.6 56.5 50 3.5 38.4
06:35 1011 29.85 840 24.81 13.7 56.7 51 3.8 38.9
06:40 1011 29.85 840 24.81 13.8 56.8 49 3.4 38.1
06:45 1011 29.85 840 24.81 14 57.3 48 3.4 38.1
06:50 1011 29.85 840 24.81 14.3 57.8 46 3 37.3
06:55 1011 29.85 841 24.83 14.6 58.3 47 3.4 38.2
07:00 1011 29.85 841 24.83 14.8 58.7 44 2.7 36.9
07:05 1011 29.85 841 24.83 15.1 59.2 43 2.6 36.7
07:10 1011 29.85 841 24.83 15.5 59.9 46 4.1 39.3
07:15 1012 29.88 841 24.83 16.1 61.1 43 3.6 38.5
07:20 1012 29.88 841 24.83 16.2 61.1 42 3.4 38.1
07:25 1011 29.85 841 24.83 16.4 61.5 42 3.4 38.2
07:30 1011 29.85 841 24.83 16.8 62.3 43 4.4 40
07:35 1012 29.88 841 24.83 17.1 62.8 40 3.5 38.2
07:40 1011 29.85 841 24.83 17.1 62.7 41 3.9 39
07:45 1012 29.88 841 24.83 16.9 62.4 43 4.2 39.5
07:50 1011 29.85 841 24.83 16.9 62.3 44 4.8 40.6
07:55 1011 29.85 840 24.81 16.7 62.1 43 4.2 39.6
08:00 1011 29.85 841 24.83 16.8 62.2 43 4.3 39.8
08:05 1011 29.85 841 24.83 16.8 62.3 40 3.1 37.6
08:10 1011 29.85 840 24.81 16.5 61.8 41 3.3 37.9
08:15 1011 29.85 840 24.81 17 62.7 39 2.9 37.3
08:20 1011 29.85 840 24.81 17.8 64.1 37 2.9 37.3
08:25 1011 29.85 840 24.81 18.6 65.5 35 3 37.3
08:30 1011 29.85 840 24.81 19 66.3 35 3.5 38.3
08:35 1011 29.85 840 24.81 18.2 64.7 37 3.3 38
08:40 1011 29.85 840 24.81 18 64.3 38 3.7 38.7
08:45 1011 29.85 840 24.81 18 64.5 41 4.8 40.7
08:50 1010 29.83 840 24.81 17.6 63.8 42 4.8 40.7
08:55 1010 29.83 839 24.78 17.8 64.1 42 4.8 40.6
09:00 1010 29.83 839 24.78 18 64.3 42 4.9 40.9
09:05 1010 29.83 839 24.78 18.1 64.5 40 4.3 39.8
09:10 1010 29.83 839 24.78 18.4 65 39 4.3 39.7
09:15 1010 29.83 839 24.78 18.3 65 40 4.6 40.4
09:20 1010 29.83 839 24.78 18.3 64.9 37 3.4 38.2
09:25 1010 29.83 839 24.78 18.9 66 37 4.2 39.5
09:30 1010 29.83 839 24.78 19.4 66.9 35 3.7 38.7
09:35 1010 29.83 839 24.78 19.8 67.7 28 0.9 33.6
09:40 1010 29.83 839 24.78 19.9 67.8 27 0.5 33
09:45 1010 29.83 839 24.78 20.1 68.2 29 1.9 35.4
09:50 1010 29.83 839 24.78 20.4 68.7 28 1.4 34.6
09:55 1010 29.83 839 24.78 20.6 69.2 27 1.3 34.4
10:00 1010 29.83 839 24.78 20.9 69.6 26 1 33.8
10:05 1010 29.83 839 24.78 20.7 69.2 27 1.1 33.9
10:10 1010 29.83 839 24.78 20.6 69.1 27 1 33.9
10:15 1010 29.83 839 24.78 20.6 69 27 1.2 34.1
10:20 1010 29.83 839 24.78 21.1 70 26 0.9 33.7
10:25 1009 29.8 839 24.78 20.9 69.7 27 1.5 34.8
10:30 1009 29.8 839 24.78 21.1 70 27 1.8 35.3
10:35 1009 29.8 839 24.78 21 69.7 25 0.1 32.2
10:40 1009 29.8 839 24.78 20.9 69.6 25 0.6 33
10:45 1009 29.8 838 24.75 21 69.8 25 0.4 32.8
10:50 1009 29.8 838 24.75 21 69.7 25 0.5 32.9
10:55 1009 29.8 838 24.75 21.2 70.2 25 0.7 33.3
11:00 1009 29.8 838 24.75 21.2 70.1 26 1 33.8
11:05 1009 29.8 838 24.75 21.1 70 24 -0.1 31.9
11:10 1009 29.8 838 24.75 21.1 70 25 0.4 32.7
11:15 1009 29.8 838 24.75 21.3 70.4 24 -0 32
11:20 1009 29.8 838 24.75 21.4 70.5 25 1 33.7
11:25 1009 29.8 838 24.75 21.6 71 25 0.7 33.3
11:30 1008 29.77 838 24.75 21.8 71.3 25 0.9 33.6
11:35 1008 29.77 837 24.72 21.7 71 24 0.5 33
11:40 1008 29.77 838 24.75 22 71.5 23 0.3 32.6
11:45 1008 29.77 837 24.72 22 71.6 25 1.1 34
11:50 1008 29.77 837 24.72 22.1 71.7 23 0.4 32.8
11:55 1008 29.77 837 24.72 22 71.6 25 1.1 34.1
12:00 1008 29.77 837 24.72 22.6 72.6 24 1.2 34.1
12:05 1008 29.77 837 24.72 22.5 72.4 23 0.7 33.3
12:10 1008 29.77 837 24.72 22.2 72 23 0.3 32.5
12:15 1008 29.77 837 24.72 22.3 72.1 23 0.1 32.2
12:20 1008 29.77 837 24.72 22.3 72.1 23 0.1 32.1
12:25 1008 29.77 837 24.72 22.3 72.2 22 -0.2 31.6
12:30 1008 29.77 837 24.72 22.4 72.4 19 -1.8 28.8
12:35 1008 29.77 837 24.72 22.4 72.3 21 -0.5 31
12:40 1008 29.77 837 24.72 22.4 72.4 20 -1.3 29.7
12:45 1008 29.77 837 24.72 22.5 72.6 22 -0.2 31.6
12:50 1008 29.77 837 24.72 22.5 72.5 21 -0.7 30.8
12:55 1008 29.77 837 24.72 22.4 72.4 20 -1.2 29.8
13:00 1008 29.77 837 24.72 22.6 72.6 22 0.1 32.1
13:05 1008 29.77 837 24.72 23.1 73.6 21 -0.1 31.8
13:10 1008 29.77 837 24.72 23.1 73.5 20 -0.7 30.7
13:15 1008 29.77 837 24.72 22.8 73.1 20 -1.1 29.9
13:20 1008 29.77 837 24.72 22.5 72.4 22 -0.3 31.5
13:25 1008 29.77 837 24.72 22.9 73.3 21 -0.2 31.7
13:30 1008 29.77 837 24.72 22.4 72.3 21 -0.6 30.9
13:35 1008 29.77 837 24.72 22.4 72.3 21 -0.8 30.6
13:40 1008 29.77 837 24.72 22.9 73.1 20 -0.7 30.7
13:45 1008 29.77 837 24.72 22.5 72.4 21 -1 30.2
13:50 1008 29.77 837 24.72 22.2 71.9 20 -1.3 29.6
13:55 1008 29.77 837 24.72 22.5 72.5 20 -1.5 29.3
14:00 1008 29.77 838 24.75 22.9 73.1 20 -0.8 30.5
14:05 1009 29.8 838 24.75 23.4 74.1 18 -1.8 28.7
14:10 1009 29.8 838 24.75 24 75.2 29 4.9 40.8
14:15 1009 29.8 838 24.75 20.7 69.2 35 4.8 40.7
14:20 1009 29.8 838 24.75 18.7 65.6 38 4.2 39.6
14:25 1009 29.8 839 24.78 18 64.4 40 4.5 40.1
14:30 1010 29.83 839 24.78 18 64.3 41 4.7 40.5
14:35 1010 29.83 839 24.78 17.7 63.9 42 4.9 40.8
14:40 1010 29.83 839 24.78 17.3 63.1 43 4.8 40.6
14:45 1010 29.83 839 24.78 16.9 62.4 45 5 41.1
14:50 1010 29.83 840 24.81 16.8 62.3 47 5.7 42.3
14:55 1011 29.85 840 24.81 16.1 60.9 53 6.7 44.1
15:00 1011 29.85 840 24.81 15.6 60.2 56 7.1 44.8
15:05 1011 29.85 840 24.81 15.6 60 56 6.8 44.2
15:10 1011 29.85 840 24.81 15.7 60.2 55 6.7 44
15:15 1011 29.85 840 24.81 15.9 60.6 53 6.4 43.5
15:20 1011 29.85 840 24.81 16 60.8 52 6.3 43.4
15:25 1011 29.85 840 24.81 16 60.8 52 6.4 43.4
15:30 1011 29.85 841 24.83 15.7 60.3 54 6.4 43.6
15:35 1011 29.85 841 24.83 16.1 60.9 52 6.4 43.5
15:40 1011 29.85 841 24.83 16.2 61.2 50 5.9 42.6
15:45 1012 29.88 841 24.83 16 60.8 52 6.3 43.4
15:50 1012 29.88 841 24.83 15.9 60.6 53 6.3 43.3
15:55 1012 29.88 841 24.83 15.4 59.7 57 6.9 44.5
16:00 1012 29.88 841 24.83 15.1 59.1 53 5.6 42
16:05 1012 29.88 841 24.83 15.6 60.1 49 5.1 41.2
16:10 1012 29.88 841 24.83 15.2 59.4 49 4.8 40.6
16:15 1012 29.88 842 24.86 15 59 51 4.9 40.8
16:20 1013 29.91 842 24.86 14.6 58.2 52 5.1 41.1
16:25 1013 29.91 842 24.86 14.1 57.4 55 5.2 41.4
16:30 1013 29.91 842 24.86 13.8 56.8 54 4.6 40.3
16:35 1013 29.91 842 24.86 13.6 56.6 54 4.7 40.4
16:40 1013 29.91 842 24.86 13.6 56.5 55 4.9 40.9
16:45 1013 29.91 843 24.89 13.5 56.2 55 4.8 40.6
16:50 1013 29.91 843 24.89 13.4 56.1 56 4.8 40.7
16:55 1013 29.91 843 24.89 13.3 55.9 56 4.6 40.4
17:00 1014 29.94 843 24.89 13 55.4 56 4.6 40.2
17:05 1014 29.94 843 24.89 13 55.3 53 3.7 38.7
17:10 1014 29.94 843 24.89 13.1 55.6 54 4 39.2
17:15 1014 29.94 843 24.89 13.2 55.8 54 4.2 39.5
17:20 1014 29.94 843 24.89 13.2 55.8 54 4.3 39.7
17:25 1014 29.94 843 24.89 13.2 55.7 54 4.1 39.4
17:30 1014 29.94 843 24.89 13.4 56.1 50 3.3 38
17:35 1014 29.94 843 24.89 13.4 56.1 51 3.5 38.3
17:40 1014 29.94 843 24.89 13.3 55.9 52 3.7 38.6
17:45 1014 29.94 843 24.89 13.3 56 51 3.3 38
17:50 1014 29.94 843 24.89 13.5 56.2 51 3.6 38.6
17:55 1014 29.94 843 24.89 13.7 56.6 49 3.3 37.9
18:00 1014 29.94 843 24.89 13.8 56.9 48 3 37.4
18:05 1014 29.94 843 24.89 14.3 57.7 46 3 37.4
18:10 1014 29.94 843 24.89 14.4 58 45 2.9 37.1
18:15 1014 29.94 843 24.89 14.5 58.1 47 3.3 38
18:20 1014 29.94 843 24.89 14.7 58.4 46 3.1 37.6
18:25 1014 29.94 843 24.89 14.4 58 47 3.3 37.9
18:30 1014 29.94 843 24.89 14 57.2 47 3 37.3
18:35 1014 29.94 843 24.89 13.6 56.4 50 3.4 38.1
18:40 1014 29.94 843 24.89 13.2 55.8 51 3.3 37.9
18:45 1014 29.94 843 24.89 13.1 55.5 51 3.2 37.8
18:50 1014 29.94 843 24.89 12.9 55.2 52 3.2 37.8
18:55 1014 29.94 843 24.89 13 55.4 52 3.4 38.2
19:00 1014 29.94 843 24.89 12.9 55.2 53 3.6 38.5
19:05 1014 29.94 843 24.89 12.8 55 53 3.6 38.5
19:10 1014 29.94 843 24.89 12.6 54.7 55 3.8 38.8
19:15 1014 29.94 843 24.89 12.5 54.5 55 3.8 38.8
19:20 1014 29.94 843 24.89 12.4 54.4 55 3.6 38.5
19:25 1014 29.94 843 24.89 12.5 54.4 54 3.5 38.2
19:30 1014 29.94 843 24.89 12.4 54.4 53 3.3 37.9
19:35 1014 29.94 843 24.89 12.2 53.9 53 3 37.4
19:40 1014 29.94 843 24.89 12 53.7 53 2.8 37.1
19:45 1014 29.94 843 24.89 12 53.5 53 2.8 37.1
19:50 1014 29.94 843 24.89 11.9 53.3 53 2.8 37
19:55 1014 29.94 843 24.89 11.9 53.4 53 2.6 36.7
20:00 1014 29.94 843 24.89 11.8 53.3 53 2.6 36.6
20:05 1014 29.94 843 24.89 11.7 53.1 53 2.5 36.4
20:10 1014 29.94 843 24.89 11.7 53 53 2.5 36.4
20:15 1014 29.94 843 24.89 11.7 53 52 2.4 36.2
20:20 1014 29.94 843 24.89 11.7 53 53 2.5 36.6
20:25 1014 29.94 843 24.89 11.6 52.8 54 2.5 36.5
20:30 1014 29.94 843 24.89 11.4 52.6 54 2.6 36.7
20:35 1014 29.94 843 24.89 11.3 52.4 56 2.9 37.2
20:40 1014 29.94 843 24.89 11 51.7 59 3.2 37.8
20:45 1014 29.94 843 24.89 10.6 51 59 3 37.4
20:50 1014 29.94 844 24.92 10.5 50.8 60 3 37.5
20:55 1014 29.94 844 24.92 10.5 50.9 60 3 37.4
21:00 1015 29.97 844 24.92 10.5 51 59 3 37.4
21:05 1015 29.97 844 24.92 10.5 50.9 61 3.3 38
21:10 1015 29.97 844 24.92 10.1 50.2 64 3.7 38.7
21:15 1015 29.97 844 24.92 9.7 49.4 66 3.7 38.7
21:20 1015 29.97 844 24.92 9.6 49.2 67 3.8 38.9
21:25 1015 29.97 844 24.92 9.4 49 68 3.9 39
21:30 1015 29.97 844 24.92 9.3 48.7 68 3.7 38.7
21:35 1015 29.97 844 24.92 9.3 48.8 68 3.8 38.8
21:40 1015 29.97 844 24.92 9.3 48.7 69 3.8 38.9
21:45 1015 29.97 844 24.92 9.2 48.5 69 3.9 39
21:50 1015 29.97 844 24.92 9.1 48.4 69 3.8 38.9
21:55 1015 29.97 844 24.92 9 48.2 70 3.9 39
22:00 1015 29.97 844 24.92 8.9 47.9 70 3.7 38.7
22:05 1015 29.97 844 24.92 8.8 47.9 70 3.7 38.6
22:10 1015 29.97 844 24.92 8.8 47.8 71 3.8 38.8
22:15 1015 29.97 844 24.92 8.7 47.7 71 3.7 38.7
22:20 1015 29.97 844 24.92 8.6 47.5 71 3.7 38.6
22:25 1015 29.97 844 24.92 8.6 47.5 71 3.6 38.5
22:30 1015 29.97 844 24.92 8.5 47.3 72 3.7 38.6
22:35 1015 29.97 844 24.92 8.4 47 72 3.6 38.4
22:40 1015 29.97 844 24.92 8.5 47.2 72 3.7 38.6
22:45 1015 29.97 844 24.92 8.5 47.3 71 3.6 38.5
22:50 1015 29.97 844 24.92 8.5 47.2 70 3.4 38.1
22:55 1015 29.97 844 24.92 8.5 47.3 71 3.5 38.3
23:00 1015 29.97 844 24.92 8.4 47.2 72 3.6 38.5
23:05 1015 29.97 844 24.92 8.2 46.7 72 3.5 38.4
23:10 1015 29.97 844 24.92 8.1 46.7 72 3.4 38.1
23:15 1015 29.97 844 24.92 8 46.5 72 3.4 38.1
23:20 1015 29.97 844 24.92 7.9 46.3 72 3.3 37.9
23:25 1015 29.97 844 24.92 8 46.4 72 3.3 37.9
23:30 1015 29.97 844 24.92 7.9 46.3 73 3.3 38
23:35 1015 29.97 844 24.92 7.7 45.8 74 3.4 38.1
23:40 1015 29.97 844 24.92 7.4 45.3 75 3.2 37.8
23:45 1015 29.97 845 24.95 7.2 45 76 3.3 38
23:50 1015 29.97 845 24.95 6.8 44.3 77 3.2 37.7
23:55 1015 29.97 845 24.95 6.7 44.1 77 3 37.5
24:00 1015 29.97 845 24.95 6.6 44 78 3 37.4